createdAt,value
2018-11-21T00:00:34.802Z,23.37
2018-11-21T00:02:39.323Z,23.63
2018-11-21T00:04:43.401Z,23.87
2018-11-21T00:06:47.734Z,23.27
2018-11-21T00:08:53.602Z,23.53
2018-11-21T00:10:57.896Z,25.33
2018-11-21T00:13:02.617Z,24.97
2018-11-21T00:15:09.414Z,25.23
2018-11-21T00:17:13.367Z,24.17
2018-11-21T00:19:17.306Z,25.40
2018-11-21T00:21:21.426Z,23.83
2018-11-21T00:23:26.395Z,26.87
2018-11-21T00:25:30.402Z,25.57
2018-11-21T00:27:34.417Z,24.63
2018-11-21T00:29:49.421Z,24.53
2018-11-21T00:31:55.577Z,24.37
2018-11-21T00:34:00.515Z,23.00
2018-11-21T00:36:05.279Z,24.13
2018-11-21T00:38:09.949Z,25.50
2018-11-21T00:40:15.660Z,25.63
2018-11-21T00:42:19.574Z,25.17
2018-11-21T00:44:23.889Z,23.87
2018-11-21T00:46:28.131Z,24.67
2018-11-21T00:48:33.097Z,28.23
2018-11-21T00:50:37.765Z,27.87
2018-11-21T00:52:42.276Z,27.17
2018-11-21T00:54:47.196Z,23.67
2018-11-21T00:56:52.443Z,25.50
2018-11-21T00:58:59.525Z,25.57
2018-11-21T01:01:04.038Z,26.53
2018-11-21T01:03:08.058Z,26.20
2018-11-21T01:05:12.544Z,26.67
2018-11-21T01:07:16.709Z,26.00
2018-11-21T01:09:20.685Z,27.50
2018-11-21T01:11:26.405Z,26.33
2018-11-21T01:13:30.794Z,26.20
2018-11-21T01:15:35.325Z,26.70
2018-11-21T01:17:40.557Z,25.77
2018-11-21T01:19:45.523Z,26.67
2018-11-21T01:21:50.876Z,27.10
2018-11-21T01:23:55.742Z,25.73
2018-11-21T01:26:00.781Z,26.57
2018-11-21T01:28:06.622Z,26.97
2018-11-21T01:30:13.748Z,26.23
2018-11-21T01:32:19.074Z,26.53
2018-11-21T01:34:23.345Z,26.80
2018-11-21T01:36:27.362Z,25.33
2018-11-21T01:38:31.681Z,25.30
2018-11-21T01:40:36.516Z,27.70
2018-11-21T01:42:41.501Z,25.77
2018-11-21T01:44:45.580Z,26.10
2018-11-21T01:46:50.104Z,26.20
2018-11-21T01:48:54.132Z,26.70
2018-11-21T01:51:16.235Z,28.23
2018-11-21T01:53:20.291Z,26.80
2018-11-21T01:55:24.798Z,28.77
2018-11-21T01:57:31.185Z,27.83
2018-11-21T01:59:35.578Z,27.77
2018-11-21T02:01:40.948Z,26.90
2018-11-21T02:03:45.987Z,27.03
2018-11-21T02:05:51.513Z,25.83
2018-11-21T02:07:58.118Z,24.20
2018-11-21T02:10:03.516Z,26.33
2018-11-21T02:12:08.573Z,24.93
2018-11-21T02:14:12.766Z,27.33
2018-11-21T02:16:19.168Z,25.57
2018-11-21T02:18:23.781Z,26.07
2018-11-21T02:20:28.659Z,27.20
2018-11-21T02:22:35.283Z,24.30
2018-11-21T02:24:39.776Z,26.47
2018-11-21T02:26:46.031Z,25.17
2018-11-21T02:28:50.627Z,26.60
2018-11-21T02:30:54.578Z,24.80
2018-11-21T02:32:58.559Z,24.50
2018-11-21T02:35:02.478Z,25.70
2018-11-21T02:37:06.431Z,25.00
2018-11-21T02:39:11.411Z,25.43
2018-11-21T02:41:15.283Z,24.90
2018-11-21T02:43:19.213Z,23.60
2018-11-21T02:45:23.393Z,23.47
2018-11-21T02:47:59.276Z,23.03
2018-11-21T02:50:03.168Z,25.87
2018-11-21T02:52:07.190Z,24.60
2018-11-21T02:54:11.184Z,24.30
2018-11-21T02:56:15.148Z,24.03
2018-11-21T02:58:19.079Z,23.87
2018-11-21T03:00:24.674Z,24.20
2018-11-21T03:02:28.660Z,23.60
2018-11-21T03:04:32.643Z,21.17
2018-11-21T03:06:36.776Z,23.20
2018-11-21T03:08:40.808Z,22.80
2018-11-21T03:10:44.757Z,23.43
2018-11-21T03:12:48.669Z,21.47
2018-11-21T03:14:52.652Z,24.53
2018-11-21T03:16:56.650Z,22.07
2018-11-21T03:19:00.570Z,22.60
2018-11-21T03:21:04.640Z,23.17
2018-11-21T03:23:08.588Z,23.30
2018-11-21T03:25:12.613Z,21.90
2018-11-21T03:27:25.089Z,23.50
2018-11-21T03:29:29.513Z,21.63
2018-11-21T03:31:33.588Z,20.60
2018-11-21T03:33:37.675Z,22.43
2018-11-21T03:35:42.451Z,23.37
2018-11-21T03:37:47.944Z,22.60
2018-11-21T03:39:53.041Z,21.20
2018-11-21T03:42:01.538Z,22.43
2018-11-21T03:44:07.633Z,21.90
2018-11-21T03:46:13.127Z,22.50
2018-11-21T03:48:18.281Z,21.17
2018-11-21T03:50:23.084Z,21.73
2018-11-21T03:52:28.493Z,21.37
2018-11-21T03:54:33.303Z,21.57
2018-11-21T03:56:38.906Z,21.33
2018-11-21T03:58:44.414Z,20.20
2018-11-21T04:00:50.057Z,20.07
2018-11-21T04:02:54.606Z,19.43
2018-11-21T04:05:02.532Z,21.87
2018-11-21T04:07:07.068Z,21.03
2018-11-21T04:09:13.829Z,21.77
2018-11-21T04:11:19.743Z,21.73
2018-11-21T04:13:24.829Z,20.37
2018-11-21T04:15:30.026Z,21.67
2018-11-21T04:17:34.747Z,20.40
2018-11-21T04:19:40.641Z,20.10
2018-11-21T04:21:44.671Z,19.80
2018-11-21T04:23:49.890Z,20.83
2018-11-21T04:25:54.009Z,20.67
2018-11-21T04:27:58.019Z,18.00
2018-11-21T04:30:02.046Z,20.30
2018-11-21T04:32:06.007Z,19.60
2018-11-21T04:34:15.399Z,19.40
2018-11-21T04:36:22.788Z,21.13
2018-11-21T04:38:26.843Z,18.03
2018-11-21T04:40:30.884Z,19.40
2018-11-21T04:42:34.946Z,20.13
2018-11-21T04:44:39.098Z,18.80
2018-11-21T04:46:44.369Z,20.03
2018-11-21T04:48:49.669Z,21.37
2018-11-21T04:50:56.269Z,20.33
2018-11-21T04:53:01.933Z,19.30
2018-11-21T04:55:08.288Z,19.67
2018-11-21T04:57:13.538Z,18.30
2018-11-21T04:59:18.353Z,20.00
2018-11-21T05:01:24.419Z,20.70
2018-11-21T05:03:29.678Z,20.00
2018-11-21T05:05:35.538Z,18.83
2018-11-21T05:07:41.089Z,20.53
2018-11-21T05:09:45.864Z,19.37
2018-11-21T05:11:50.412Z,18.23
2018-11-21T05:13:54.869Z,18.63
2018-11-21T05:15:58.910Z,17.13
2018-11-21T05:18:05.521Z,21.30
2018-11-21T05:20:11.728Z,18.97
2018-11-21T05:22:16.702Z,19.03
2018-11-21T05:24:21.446Z,19.77
2018-11-21T05:26:25.526Z,20.00
2018-11-21T05:28:29.700Z,20.20
2018-11-21T05:30:35.255Z,19.80
2018-11-21T05:32:39.516Z,19.70
2018-11-21T05:34:43.478Z,19.73
2018-11-21T05:36:47.431Z,22.03
2018-11-21T05:38:51.544Z,22.23
2018-11-21T05:40:55.468Z,20.17
2018-11-21T05:42:59.442Z,20.60
2018-11-21T05:45:03.412Z,20.30
2018-11-21T05:47:07.352Z,21.40
2018-11-21T05:49:11.290Z,18.77
2018-11-21T05:51:15.322Z,17.50
2018-11-21T05:53:19.252Z,20.03
2018-11-21T05:55:23.296Z,17.80
2018-11-21T05:57:27.277Z,20.63
2018-11-21T05:59:31.441Z,20.77
2018-11-21T06:01:35.396Z,20.53
2018-11-21T06:03:39.342Z,20.80
2018-11-21T06:05:43.334Z,21.03
2018-11-21T06:07:47.405Z,19.77
2018-11-21T06:09:51.346Z,20.83
2018-11-21T06:11:55.528Z,20.13
2018-11-21T06:13:59.607Z,20.17
2018-11-21T06:16:03.768Z,20.67
2018-11-21T06:18:08.255Z,20.40
2018-11-21T06:20:15.991Z,20.87
2018-11-21T06:22:20.078Z,17.90
2018-11-21T06:24:24.053Z,19.93
2018-11-21T06:26:27.982Z,20.80
2018-11-21T06:28:32.004Z,19.33
2018-11-21T06:30:35.993Z,19.33
2018-11-21T06:32:40.245Z,19.87
2018-11-21T06:34:44.228Z,20.27
2018-11-21T06:36:48.201Z,19.20
2018-11-21T06:38:52.183Z,21.83
2018-11-21T06:40:56.117Z,17.80
2018-11-21T06:43:00.688Z,18.50
2018-11-21T06:45:05.269Z,18.83
2018-11-21T06:47:17.085Z,20.70
2018-11-21T06:49:21.055Z,20.07
2018-11-21T06:51:24.968Z,20.80
2018-11-21T06:53:28.897Z,16.30
2018-11-21T06:55:32.991Z,18.03
2018-11-21T06:57:36.915Z,21.70
2018-11-21T06:59:40.849Z,19.67
2018-11-21T07:01:44.941Z,19.97
2018-11-21T07:03:48.895Z,18.50
2018-11-21T07:05:52.855Z,18.93
2018-11-21T07:08:00.590Z,18.80
2018-11-21T07:10:05.963Z,18.00
2018-11-21T07:12:10.479Z,19.27
2018-11-21T07:14:14.546Z,20.03
2018-11-21T07:16:18.429Z,19.63
2018-11-21T07:18:22.460Z,19.77
2018-11-21T07:20:26.450Z,19.10
2018-11-21T07:22:30.374Z,19.87
2018-11-21T07:24:34.285Z,16.90
2018-11-21T07:26:38.320Z,20.23
2018-11-21T07:28:42.282Z,18.37
2018-11-21T07:30:46.251Z,19.27
2018-11-21T07:32:50.221Z,21.80
2018-11-21T07:34:54.200Z,19.37
2018-11-21T07:36:58.165Z,20.33
2018-11-21T07:39:02.125Z,20.07
2018-11-21T07:41:06.106Z,19.50
2018-11-21T07:43:10.072Z,20.17
2018-11-21T07:45:15.593Z,19.87
2018-11-21T07:47:19.573Z,19.27
2018-11-21T07:49:23.555Z,21.07
2018-11-21T07:51:27.667Z,20.30
2018-11-21T07:53:31.597Z,21.10
2018-11-21T07:55:35.575Z,19.57
2018-11-21T07:57:47.089Z,18.77
2018-11-21T08:00:45.298Z,20.70
2018-11-21T08:02:49.284Z,19.83
2018-11-21T08:04:57.720Z,20.03
2018-11-21T08:07:23.412Z,19.73
2018-11-21T08:09:42.350Z,17.97
2018-11-21T08:12:09.736Z,19.77
2018-11-21T08:14:41.700Z,20.50
2018-11-21T08:17:03.256Z,20.57
2018-11-21T08:19:26.300Z,20.60
2018-11-21T08:21:52.031Z,17.03
2018-11-21T08:24:07.885Z,20.17
2018-11-21T08:26:29.236Z,20.50
2018-11-21T08:28:33.262Z,20.53
2018-11-21T08:30:37.300Z,19.83
2018-11-21T08:32:41.234Z,19.43
2018-11-21T08:34:45.185Z,21.27
2018-11-21T08:36:49.206Z,19.40
2018-11-21T08:38:53.130Z,19.57
2018-11-21T08:40:57.044Z,20.40
2018-11-21T08:43:00.998Z,21.30
2018-11-21T08:45:05.459Z,20.20
2018-11-21T08:47:09.411Z,17.73
2018-11-21T08:49:13.509Z,20.37
2018-11-21T08:51:17.449Z,19.57
2018-11-21T08:53:21.398Z,19.90
2018-11-21T08:55:25.368Z,20.63
2018-11-21T08:57:29.264Z,19.93
2018-11-21T08:59:39.827Z,19.70
2018-11-21T09:01:43.800Z,20.87
2018-11-21T09:03:48.701Z,19.80
2018-11-21T09:05:52.693Z,19.07
2018-11-21T09:07:56.631Z,19.30
2018-11-21T09:10:00.646Z,20.03
2018-11-21T09:12:08.693Z,20.63
2018-11-21T09:14:08.705Z,20.20
2018-11-21T09:16:12.781Z,21.17
2018-11-21T09:18:16.748Z,19.73
2018-11-21T09:20:20.979Z,19.83
2018-11-21T09:22:25.031Z,19.40
2018-11-21T09:24:28.942Z,20.30
2018-11-21T09:26:33.309Z,21.63
2018-11-21T09:28:37.359Z,21.07
2018-11-21T09:30:41.379Z,21.50
2018-11-21T09:32:47.930Z,21.17
2018-11-21T09:34:53.008Z,20.23
2018-11-21T09:36:57.651Z,20.00
2018-11-21T09:39:01.639Z,21.60
2018-11-21T09:41:05.901Z,19.67
2018-11-21T09:43:09.815Z,20.30
2018-11-21T09:45:15.043Z,21.77
2018-11-21T09:47:19.120Z,21.37
2018-11-21T09:49:23.055Z,19.57
2018-11-21T09:51:26.986Z,22.00
2018-11-21T09:53:30.970Z,20.27
2018-11-21T09:55:35.958Z,21.23
2018-11-21T09:57:39.252Z,20.80
2018-11-21T09:59:43.218Z,20.90
2018-11-21T10:02:23.347Z,22.87
2018-11-21T10:04:27.560Z,20.97
2018-11-21T10:06:34.097Z,21.67
2018-11-21T10:08:45.251Z,22.37
2018-11-21T10:10:49.215Z,22.07
2018-11-21T10:12:53.223Z,21.87
2018-11-21T10:14:57.211Z,21.30
2018-11-21T10:17:01.186Z,22.30
2018-11-21T10:19:05.623Z,23.83
2018-11-21T10:21:11.415Z,18.70
2018-11-21T10:23:15.332Z,22.40
2018-11-21T10:25:19.293Z,21.63
2018-11-21T10:27:23.309Z,23.30
2018-11-21T10:29:27.276Z,23.37
2018-11-21T10:31:31.278Z,22.43
2018-11-21T10:33:35.180Z,23.63
2018-11-21T10:35:39.112Z,23.73
2018-11-21T10:37:43.122Z,24.17
2018-11-21T10:39:47.083Z,24.20
2018-11-21T10:41:51.012Z,23.17
2018-11-21T10:43:55.086Z,23.57
2018-11-21T10:45:59.053Z,22.77
2018-11-21T10:48:02.980Z,23.03
2018-11-21T10:50:07.820Z,23.93
2018-11-21T10:52:11.724Z,24.30
2018-11-21T10:54:15.781Z,24.07
2018-11-21T10:56:19.685Z,24.73
2018-11-21T10:58:23.612Z,24.47
2018-11-21T11:00:45.130Z,22.70
2018-11-21T11:02:58.272Z,25.30
2018-11-21T11:05:27.147Z,20.97
2018-11-21T11:07:48.595Z,23.93
2018-11-21T11:10:11.546Z,22.53
2018-11-21T11:12:41.141Z,23.30
2018-11-21T11:15:13.964Z,24.07
2018-11-21T11:17:39.583Z,23.77
2018-11-21T11:20:01.391Z,23.50
2018-11-21T11:22:27.168Z,24.50
2018-11-21T11:24:55.972Z,24.10
2018-11-21T11:27:31.048Z,21.57
2018-11-21T11:29:59.586Z,23.13
2018-11-21T11:32:34.953Z,25.17
2018-11-21T11:35:04.173Z,23.53
2018-11-21T11:37:33.065Z,20.20
2018-11-21T11:40:14.282Z,22.70
2018-11-21T11:42:46.316Z,19.27
2018-11-21T11:45:08.270Z,20.87
2018-11-21T11:47:31.284Z,18.97
2018-11-21T11:50:03.261Z,22.80
2018-11-21T11:52:32.086Z,23.33
2018-11-21T11:54:57.590Z,20.83
